Time;durP1;ratioP1;P1;durP2;ratioP2;P2;SDS_P1;SDS_P2;PMS_P1;PMS_P2;Temp;Humidity;BMP_temperature;BMP_pressure;BME280_temperature;BME280_humidity;BME280_pressure;Samples;Min_cycle;Max_cycle;Signal;HPM_P1;HPM_P2
2022/09/25 00:01:05;;;;;;;181.25;48.00;;;10.50;99.90;;;;;;6277778;22;20429;-87
2022/09/25 00:03:52;;;;;;;161.43;50.13;;;10.60;99.90;;;;;;6275259;22;20019;-86
2022/09/25 00:06:41;;;;;;;248.57;48.90;;;10.60;99.90;;;;;;6276761;22;20034;-87
2022/09/25 00:09:28;;;;;;;101.82;39.92;;;10.60;99.90;;;;;;6277149;22;20099;-87
2022/09/25 00:12:15;;;;;;;165.90;46.28;;;10.50;99.90;;;;;;6277670;22;20038;-86
2022/09/25 00:15:03;;;;;;;129.32;43.78;;;10.50;99.90;;;;;;6275378;22;20031;-86
2022/09/25 00:17:51;;;;;;;212.43;47.33;;;10.40;99.90;;;;;;6274874;22;20031;-87
2022/09/25 00:20:38;;;;;;;248.68;52.17;;;10.50;99.90;;;;;;6276281;22;20023;-87
2022/09/25 00:23:25;;;;;;;327.50;54.85;;;10.50;99.90;;;;;;6273853;22;20322;-86
2022/09/25 00:26:14;;;;;;;373.50;55.85;;;10.50;99.90;;;;;;6276455;22;20024;-87
2022/09/25 00:29:03;;;;;;;303.08;51.88;;;10.50;99.90;;;;;;6277195;22;20302;-87
2022/09/25 00:31:50;;;;;;;312.08;51.58;;;10.50;99.90;;;;;;6277553;22;20372;-86
2022/09/25 00:34:40;;;;;;;269.88;53.22;;;10.40;99.90;;;;;;6277038;22;20449;-87
2022/09/25 00:37:27;;;;;;;339.52;56.15;;;10.50;99.90;;;;;;6276297;22;20024;-87
2022/09/25 00:40:14;;;;;;;447.45;57.30;;;10.50;99.90;;;;;;6278149;22;20071;-85
2022/09/25 00:43:11;;;;;;;351.10;56.53;;;10.40;99.90;;;;;;6274926;22;20024;-86
2022/09/25 00:46:01;;;;;;;208.50;51.30;;;10.40;99.90;;;;;;6278201;22;20034;-86
2022/09/25 00:48:53;;;;;;;244.35;51.80;;;10.40;99.90;;;;;;6282941;22;20032;-87
2022/09/25 00:51:58;;;;;;;213.93;50.65;;;10.40;99.90;;;;;;6282226;22;20499;-87
2022/09/25 00:54:51;;;;;;;279.08;52.85;;;10.40;99.90;;;;;;6286266;22;20058;-85
2022/09/25 00:57:44;;;;;;;479.63;62.40;;;10.50;99.90;;;;;;6277800;22;20414;-86
2022/09/25 01:00:33;;;;;;;423.77;59.85;;;10.50;99.90;;;;;;6257922;22;20052;-86
2022/09/25 01:03:23;;;;;;;577.20;64.78;;;10.40;99.90;;;;;;6278129;22;20099;-87
2022/09/25 01:06:14;;;;;;;325.85;55.40;;;10.40;99.90;;;;;;6278902;22;20358;-86
2022/09/25 01:09:06;;;;;;;792.00;79.00;;;10.40;99.90;;;;;;6276869;22;20031;-86
2022/09/25 01:11:54;;;;;;;775.45;68.57;;;10.30;99.90;;;;;;6277982;22;20037;-86
2022/09/25 01:14:42;;;;;;;555.25;66.93;;;10.30;99.90;;;;;;6276336;22;20036;-86
2022/09/25 01:17:39;;;;;;;156.70;47.13;;;10.30;99.90;;;;;;6254649;22;20034;-86
2022/09/25 01:20:38;;;;;;;177.85;48.17;;;10.30;99.90;;;;;;6253083;22;20023;-87
2022/09/25 01:23:36;;;;;;;133.48;44.80;;;10.20;99.90;;;;;;6276819;22;20023;-86
2022/09/25 01:27:01;;;;;;;134.30;44.40;;;10.20;99.90;;;;;;6275165;22;20024;-86
2022/09/25 01:29:53;;;;;;;127.60;41.53;;;10.20;99.90;;;;;;6277575;22;20037;-87
2022/09/25 01:33:10;;;;;;;155.43;45.20;;;10.10;99.90;;;;;;6275919;22;20028;-87
2022/09/25 01:36:16;;;;;;;158.20;44.35;;;10.10;99.90;;;;;;6276916;22;20102;-86
2022/09/25 01:39:15;;;;;;;132.23;41.05;;;10.10;99.90;;;;;;6255578;22;20423;-84
2022/09/25 01:42:16;;;;;;;130.88;40.38;;;10.10;99.90;;;;;;6275857;22;20027;-86
2022/09/25 01:45:08;;;;;;;120.03;39.40;;;10.00;99.90;;;;;;6255631;22;20023;-86
2022/09/25 01:47:58;;;;;;;117.45;40.00;;;10.00;99.90;;;;;;6257158;22;20023;-86
2022/09/25 01:51:17;;;;;;;127.18;40.13;;;10.00;99.90;;;;;;6279351;22;20034;-86
2022/09/25 01:54:11;;;;;;;118.88;37.92;;;10.10;99.90;;;;;;6281071;22;20106;-87
2022/09/25 01:57:37;;;;;;;149.30;40.22;;;10.10;99.90;;;;;;6294127;22;20035;-88
2022/09/25 02:00:27;;;;;;;140.30;39.75;;;10.20;99.90;;;;;;6272945;22;20027;-86
2022/09/25 02:03:29;;;;;;;169.75;42.45;;;10.20;99.90;;;;;;6303054;22;20106;-87
2022/09/25 02:06:19;;;;;;;121.13;37.25;;;10.20;99.90;;;;;;6297197;22;20071;-86
2022/09/25 02:09:16;;;;;;;125.47;36.05;;;10.30;99.90;;;;;;6290022;22;20028;-86
2022/09/25 02:12:33;;;;;;;119.70;37.05;;;10.30;99.90;;;;;;6290758;22;20024;-86
2022/09/25 02:15:35;;;;;;;119.22;35.78;;;10.40;99.90;;;;;;6300292;22;20054;-83
2022/09/25 02:21:47;;;;;;;150.63;37.10;;;10.30;99.90;;;;;;6291307;22;19923;-86
2022/09/25 02:24:42;;;;;;;460.27;51.72;;;10.30;99.90;;;;;;6293989;22;20107;-86
2022/09/25 02:27:29;;;;;;;292.20;51.95;;;10.30;99.90;;;;;;6271889;22;20080;-86
2022/09/25 02:30:17;;;;;;;794.88;69.88;;;10.20;99.90;;;;;;6290191;22;20020;-86
2022/09/25 02:33:04;;;;;;;733.85;68.35;;;10.20;99.90;;;;;;6288590;22;20019;-85
2022/09/25 02:35:52;;;;;;;1007.45;78.85;;;10.10;99.90;;;;;;6288881;22;20026;-85
2022/09/25 02:38:39;;;;;;;1037.22;85.75;;;10.00;99.90;;;;;;6258475;22;20034;-86
2022/09/25 02:41:38;;;;;;;777.65;76.68;;;10.00;99.90;;;;;;6280256;22;20023;-85
2022/09/25 02:44:58;;;;;;;1095.90;93.75;;;10.00;99.90;;;;;;6276767;22;20095;-85
2022/09/25 02:48:11;;;;;;;943.53;85.88;;;10.10;99.90;;;;;;6279143;22;20020;-85
2022/09/25 02:51:05;;;;;;;;;;;10.10;99.90;;;;;;6277929;22;20105;-86
2022/09/25 02:54:00;;;;;;;196.57;50.38;;;10.10;99.90;;;;;;6294155;22;19930;-86
2022/09/25 02:57:02;;;;;;;175.00;50.13;;;10.20;99.90;;;;;;6293824;22;20024;-87
2022/09/25 02:59:57;;;;;;;;;;;10.20;99.90;;;;;;6293312;22;20011;-85
2022/09/25 03:02:45;;;;;;;122.47;46.65;;;10.30;99.90;;;;;;6302027;22;19943;-84
2022/09/25 03:05:42;;;;;;;122.60;46.88;;;10.30;99.90;;;;;;6284673;22;20051;-84
2022/09/25 03:08:40;;;;;;;133.48;45.55;;;10.30;99.90;;;;;;6284653;22;20027;-85
2022/09/25 03:11:30;;;;;;;136.57;46.53;;;10.30;99.90;;;;;;6259998;22;20089;-85
2022/09/25 03:14:19;;;;;;;136.48;45.67;;;10.30;99.90;;;;;;6278421;22;20082;-87
2022/09/25 03:17:08;;;;;;;108.65;41.22;;;10.30;99.90;;;;;;6279838;22;20304;-88
2022/09/25 03:19:55;;;;;;;110.88;41.33;;;10.30;99.90;;;;;;6277499;22;20020;-88
2022/09/25 03:22:42;;;;;;;94.25;40.63;;;10.30;99.90;;;;;;6276616;22;20024;-87
2022/09/25 03:25:29;;;;;;;101.50;38.97;;;10.30;99.90;;;;;;6278183;22;20020;-87
2022/09/25 03:28:17;;;;;;;111.40;40.83;;;10.30;99.90;;;;;;6276096;22;20034;-87
2022/09/25 03:31:09;;;;;;;106.47;40.03;;;10.30;99.90;;;;;;6276251;22;20023;-87
2022/09/25 03:33:57;;;;;;;104.93;40.20;;;10.30;99.90;;;;;;6279412;22;20027;-87
2022/09/25 03:36:46;;;;;;;100.82;38.70;;;10.20;99.90;;;;;;6276792;22;20034;-86
2022/09/25 03:39:33;;;;;;;340.23;53.88;;;10.30;99.90;;;;;;6276901;22;20019;-87
2022/09/25 03:42:20;;;;;;;716.40;74.00;;;10.20;99.90;;;;;;6257377;22;20019;-87
2022/09/25 03:45:08;;;;;;;402.00;59.78;;;10.20;99.90;;;;;;6277694;22;20316;-86
2022/09/25 03:47:55;;;;;;;1476.50;119.38;;;10.20;99.90;;;;;;6276895;22;20030;-85
2022/09/25 03:50:44;;;;;;;763.08;82.45;;;10.20;99.90;;;;;;6278523;22;20044;-86
2022/09/25 03:53:34;;;;;;;220.93;52.42;;;10.20;99.90;;;;;;6253805;22;20203;-86
2022/09/25 03:56:23;;;;;;;169.70;49.20;;;10.20;99.90;;;;;;6278426;22;20024;-87
2022/09/25 03:59:10;;;;;;;238.70;55.55;;;10.20;99.90;;;;;;6278534;22;20031;-86
2022/09/25 04:02:01;;;;;;;193.38;53.35;;;10.20;99.90;;;;;;6275900;22;20034;-87
2022/09/25 04:04:49;;;;;;;178.48;53.33;;;10.30;99.90;;;;;;6278701;22;20029;-86
2022/09/25 04:07:36;;;;;;;143.43;49.65;;;10.30;99.90;;;;;;6276253;22;20036;-85
2022/09/25 04:10:23;;;;;;;134.73;44.60;;;10.30;99.90;;;;;;6278092;22;20065;-85
2022/09/25 04:13:15;;;;;;;111.05;43.78;;;10.30;99.90;;;;;;6256369;22;20031;-85
2022/09/25 04:16:08;;;;;;;113.13;41.75;;;10.20;99.90;;;;;;6275834;22;20106;-85
2022/09/25 04:18:58;;;;;;;116.78;41.50;;;10.20;99.90;;;;;;6278693;22;20023;-86
2022/09/25 04:21:48;;;;;;;91.88;37.53;;;10.20;99.90;;;;;;6276103;22;20023;-86
2022/09/25 04:24:48;;;;;;;90.00;37.17;;;10.20;99.90;;;;;;6278106;22;20019;-86
2022/09/25 04:27:35;;;;;;;78.70;34.33;;;10.20;99.90;;;;;;6278994;22;20098;-87
2022/09/25 04:30:23;;;;;;;97.95;36.75;;;10.20;99.90;;;;;;6276466;22;20024;-86
2022/09/25 04:36:17;;;;;;;92.97;38.03;;;10.20;99.90;;;;;;6281331;22;20330;-86
2022/09/25 04:39:08;;;;;;;102.60;38.85;;;10.30;99.90;;;;;;6274409;22;20027;-86
2022/09/25 04:41:58;;;;;;;89.22;37.08;;;10.20;99.90;;;;;;6278086;22;20027;-86
2022/09/25 04:44:45;;;;;;;99.25;38.42;;;10.30;99.90;;;;;;6278431;22;20024;-86
2022/09/25 04:47:32;;;;;;;116.50;40.63;;;10.30;99.90;;;;;;6278384;22;20273;-85
2022/09/25 04:50:23;;;;;;;105.28;38.33;;;10.30;99.90;;;;;;6276268;22;20098;-87
2022/09/25 04:53:11;;;;;;;114.18;41.58;;;10.30;99.90;;;;;;6277689;22;20027;-86
2022/09/25 04:56:06;;;;;;;119.75;42.45;;;10.30;99.90;;;;;;6299370;22;20031;-83
2022/09/25 04:58:59;;;;;;;111.45;40.92;;;10.30;99.90;;;;;;6280757;22;20098;-86
2022/09/25 05:01:49;;;;;;;138.55;42.47;;;10.30;99.90;;;;;;6280711;22;20024;-85
2022/09/25 05:04:38;;;;;;;358.50;53.42;;;10.30;99.90;;;;;;6258750;22;20030;-85
2022/09/25 05:07:26;;;;;;;190.93;47.00;;;10.30;99.90;;;;;;6282345;22;20019;-87
2022/09/25 05:10:13;;;;;;;148.35;45.63;;;10.30;99.90;;;;;;6282682;22;20023;-88
2022/09/25 05:13:04;;;;;;;133.13;45.83;;;10.30;99.90;;;;;;6282549;22;20071;-87
2022/09/25 05:15:51;;;;;;;136.25;47.13;;;10.30;99.90;;;;;;6260022;22;20099;-86
2022/09/25 05:18:38;;;;;;;131.80;46.38;;;10.30;99.90;;;;;;6278864;22;20030;-87
2022/09/25 05:21:25;;;;;;;125.68;44.75;;;10.30;99.90;;;;;;6279850;22;20342;-85
2022/09/25 05:24:14;;;;;;;114.55;45.30;;;10.30;99.90;;;;;;6278841;22;20071;-86
2022/09/25 05:27:02;;;;;;;105.85;41.95;;;10.40;99.90;;;;;;6276865;22;20039;-86
2022/09/25 05:29:52;;;;;;;100.82;38.58;;;10.30;99.90;;;;;;6276451;22;20024;-86
2022/09/25 05:32:48;;;;;;;96.22;38.42;;;10.40;99.90;;;;;;6276095;22;20023;-87
2022/09/25 05:35:36;;;;;;;91.35;38.25;;;10.50;99.90;;;;;;6275014;22;20498;-86
2022/09/25 05:38:23;;;;;;;90.18;39.08;;;10.50;99.90;;;;;;6274400;22;20035;-86
2022/09/25 05:41:12;;;;;;;111.07;41.17;;;10.60;99.90;;;;;;6273984;22;20031;-85
2022/09/25 05:44:05;;;;;;;109.38;42.72;;;10.70;99.90;;;;;;6255959;22;20023;-86
2022/09/25 05:46:55;;;;;;;118.38;41.08;;;10.70;99.90;;;;;;6277939;22;20019;-86
2022/09/25 05:49:44;;;;;;;106.65;39.33;;;10.70;99.90;;;;;;6255420;22;20024;-87
2022/09/25 05:52:32;;;;;;;132.75;42.17;;;10.70;99.90;;;;;;6256279;22;20036;-86
2022/09/25 05:55:19;;;;;;;108.82;40.47;;;10.70;99.90;;;;;;6255782;22;20098;-86
2022/09/25 05:58:06;;;;;;;121.88;43.80;;;10.60;99.90;;;;;;6281996;22;20027;-85
2022/09/25 06:01:00;;;;;;;123.70;43.95;;;10.60;99.90;;;;;;6281087;22;20094;-86
2022/09/25 06:03:52;;;;;;;107.00;40.72;;;10.60;99.90;;;;;;6281479;22;20023;-86
2022/09/25 06:06:39;;;;;;;123.93;44.78;;;10.60;99.90;;;;;;6277681;22;20271;-86
2022/09/25 06:09:27;;;;;;;125.20;44.72;;;10.60;99.90;;;;;;6284311;22;20024;-86
2022/09/25 06:12:17;;;;;;;114.90;42.85;;;10.60;99.90;;;;;;6285459;22;20016;-85
2022/09/25 06:15:05;;;;;;;103.00;39.22;;;10.60;99.90;;;;;;6266872;22;20084;-86
2022/09/25 06:17:59;;;;;;;100.35;40.53;;;10.60;99.90;;;;;;6283558;22;20074;-86
2022/09/25 06:20:50;;;;;;;116.45;42.90;;;10.50;99.90;;;;;;6285804;22;20020;-86
2022/09/25 06:23:37;;;;;;;116.35;43.47;;;10.50;99.90;;;;;;6285142;22;20023;-86
2022/09/25 06:26:27;;;;;;;123.70;45.90;;;10.60;99.90;;;;;;6279564;22;20303;-86
2022/09/25 06:29:18;;;;;;;131.75;46.75;;;10.70;99.90;;;;;;6283487;22;20079;-86
2022/09/25 06:32:09;;;;;;;128.45;47.17;;;10.80;99.90;;;;;;6262382;22;20058;-86
2022/09/25 06:34:57;;;;;;;120.00;47.93;;;10.80;99.90;;;;;;6258785;22;20027;-88
2022/09/25 06:37:47;;;;;;;130.23;47.78;;;10.80;99.90;;;;;;6281872;22;20062;-86
2022/09/25 06:40:39;;;;;;;133.35;50.05;;;10.80;99.90;;;;;;6279225;22;20062;-89
2022/09/25 06:43:28;;;;;;;129.25;49.58;;;10.80;99.90;;;;;;6283116;22;20028;-85
2022/09/25 06:46:20;;;;;;;114.72;46.33;;;10.80;99.90;;;;;;6259517;22;20019;-85
2022/09/25 06:49:11;;;;;;;115.82;47.15;;;10.90;99.90;;;;;;6260554;22;20023;-87
2022/09/25 06:52:04;;;;;;;113.78;45.97;;;10.90;99.90;;;;;;6260154;22;20089;-86
2022/09/25 06:54:51;;;;;;;113.47;45.00;;;11.00;99.90;;;;;;6259982;22;20059;-85
2022/09/25 06:57:47;;;;;;;116.50;45.80;;;11.10;99.90;;;;;;6280413;22;20028;-86
2022/09/25 07:00:38;;;;;;;111.38;45.05;;;11.20;99.90;;;;;;6280287;22;20026;-86
2022/09/25 07:03:43;;;;;;;107.50;43.33;;;11.20;99.90;;;;;;6278866;22;20444;-86
2022/09/25 07:06:33;;;;;;;106.55;45.25;;;11.20;99.90;;;;;;6255516;22;20045;-86
2022/09/25 07:09:23;;;;;;;101.05;44.70;;;11.20;99.90;;;;;;6282646;22;20047;-85
2022/09/25 07:12:10;;;;;;;101.95;44.92;;;11.20;99.90;;;;;;6279265;22;20092;-87
2022/09/25 07:14:57;;;;;;;100.22;44.72;;;11.30;99.90;;;;;;6278480;22;20051;-85
2022/09/25 07:17:48;;;;;;;103.80;44.30;;;11.30;99.90;;;;;;6278522;22;20028;-86
2022/09/25 07:20:35;;;;;;;92.60;42.80;;;11.40;99.90;;;;;;6280163;22;20019;-85
2022/09/25 07:23:24;;;;;;;93.05;44.20;;;11.40;99.90;;;;;;6279791;22;20128;-84
2022/09/25 07:26:27;;;;;;;100.07;44.65;;;11.60;99.90;;;;;;6280892;22;20603;-85
2022/09/25 07:29:15;;;;;;;;;;;11.60;99.90;;;;;;6259115;22;20028;-86
2022/09/25 07:32:03;;;;;;;84.18;40.13;;;11.60;99.90;;;;;;6257742;22;19915;-85
2022/09/25 07:34:53;;;;;;;79.40;37.83;;;11.60;99.90;;;;;;6279428;22;20091;-86
2022/09/25 07:37:47;;;;;;;67.72;35.10;;;11.60;99.90;;;;;;6283522;22;20023;-85
2022/09/25 07:40:37;;;;;;;67.95;34.60;;;11.60;99.90;;;;;;6262062;22;20020;-86
2022/09/25 07:43:29;;;;;;;61.75;34.40;;;11.60;99.90;;;;;;6288095;22;20019;-84
2022/09/25 07:46:18;;;;;;;67.93;35.00;;;11.60;99.90;;;;;;6290084;22;20118;-86
2022/09/25 07:49:05;;;;;;;62.85;33.47;;;11.60;99.90;;;;;;6292993;22;20047;-85
2022/09/25 07:51:52;;;;;;;59.83;32.35;;;11.60;99.90;;;;;;6266885;22;20027;-86
2022/09/25 07:54:41;;;;;;;54.63;31.13;;;11.60;99.90;;;;;;6269048;22;20023;-85
2022/09/25 07:57:30;;;;;;;45.88;28.75;;;11.70;99.90;;;;;;6289598;22;20106;-87
2022/09/25 08:00:22;;;;;;;41.67;26.30;;;11.60;99.90;;;;;;6290492;22;20099;-87
2022/09/25 08:03:12;;;;;;;41.45;26.15;;;11.70;99.90;;;;;;6291291;22;20016;-87
2022/09/25 08:06:04;;;;;;;38.60;24.50;;;11.80;99.90;;;;;;6285653;22;20449;-85
2022/09/25 08:08:51;;;;;;;34.05;22.02;;;12.00;99.90;;;;;;6289507;22;20091;-87
2022/09/25 08:11:39;;;;;;;29.88;20.45;;;12.10;99.90;;;;;;6287345;22;20097;-86
2022/09/25 08:14:27;;;;;;;22.63;17.15;;;12.20;99.90;;;;;;6283823;22;20051;-87
2022/09/25 08:17:18;;;;;;;24.58;17.13;;;12.30;99.90;;;;;;6279774;22;20038;-86
2022/09/25 08:20:09;;;;;;;21.60;16.08;;;12.30;99.90;;;;;;6260017;22;20028;-87
2022/09/25 08:22:59;;;;;;;18.13;13.98;;;12.50;99.90;;;;;;6279742;22;20077;-88
2022/09/25 08:25:50;;;;;;;15.27;11.70;;;12.50;99.90;;;;;;6278223;22;20023;-86
2022/09/25 08:28:37;;;;;;;13.95;12.00;;;12.60;99.90;;;;;;6264615;22;20094;-86
2022/09/25 08:31:27;;;;;;;12.70;10.45;;;12.60;99.90;;;;;;6288404;22;20075;-85
2022/09/25 08:34:15;;;;;;;13.15;10.40;;;12.70;99.90;;;;;;6285512;22;20032;-86
2022/09/25 08:37:23;;;;;;;12.15;10.00;;;12.80;99.90;;;;;;6290135;22;20576;-87
2022/09/25 08:40:29;;;;;;;12.15;9.85;;;13.00;99.90;;;;;;6293922;22;20058;-88
2022/09/25 08:43:20;;;;;;;11.07;9.52;;;13.20;99.90;;;;;;6272207;22;20039;-88
2022/09/25 08:49:29;;;;;;;10.90;9.27;;;13.30;99.90;;;;;;6292487;22;20026;-88
2022/09/25 08:52:20;;;;;;;9.63;8.43;;;13.20;99.90;;;;;;6272835;22;20027;-86
2022/09/25 08:56:13;;;;;;;10.02;8.48;;;13.30;99.90;;;;;;6271279;22;20020;-88
2022/09/25 08:58:42;;;;;;;10.30;8.55;;;13.40;99.90;;;;;;6294902;22;20049;-88
2022/09/25 09:01:46;;;;;;;10.35;8.30;;;13.40;99.90;;;;;;6268652;22;20116;-87
2022/09/25 09:04:46;;;;;;;12.50;9.90;;;13.50;1.00;;;;;;6256940;22;20019;-89
2022/09/25 09:07:44;;;;;;;9.73;8.73;;;13.80;99.90;;;;;;6254330;22;20042;-87
2022/09/25 09:10:36;;;;;;;10.02;8.23;;;13.80;99.90;;;;;;6277028;22;20024;-88
2022/09/25 09:13:38;;;;;;;8.60;7.50;;;14.00;99.90;;;;;;6254303;22;20087;-89
2022/09/25 09:16:25;;;;;;;9.90;8.00;;;13.90;99.90;;;;;;6280805;22;20385;-88
2022/09/25 09:19:12;;;;;;;8.30;7.40;;;13.70;1.00;;;;;;6278521;22;20337;-88
2022/09/25 09:22:09;;;;;;;8.85;6.50;;;13.90;99.90;;;;;;6277691;22;20035;-88
2022/09/25 09:25:27;;;;;;;9.07;7.32;;;14.10;99.90;;;;;;6258423;22;20034;-87
2022/09/25 09:28:39;;;;;;;9.95;7.07;;;14.10;99.90;;;;;;6257151;22;20100;-87
2022/09/25 09:31:39;;;;;;;8.40;6.68;;;14.10;99.90;;;;;;6259090;22;20093;-89
2022/09/25 09:34:30;;;;;;;8.43;6.43;;;14.20;99.90;;;;;;6259053;22;20107;-88
2022/09/25 09:37:55;;;;;;;8.65;6.97;;;14.20;51.40;;;;;;6285022;22;20024;-89
2022/09/25 09:40:57;;;;;;;9.82;8.02;;;14.00;37.90;;;;;;6281199;22;20023;-90
2022/09/25 09:44:01;;;;;;;7.90;7.00;;;14.20;54.90;;;;;;6258064;22;20027;-88
2022/09/25 09:47:04;;;;;;;7.22;6.28;;;14.00;7.50;;;;;;6258225;22;20023;-90
2022/09/25 09:50:31;;;;;;;8.70;6.32;;;14.00;63.80;;;;;;6259955;22;20024;-89
2022/09/25 09:53:58;;;;;;;8.43;6.72;;;14.10;96.70;;;;;;6263436;22;20054;-87
2022/09/25 09:56:48;;;;;;;9.57;7.20;;;14.00;30.30;;;;;;6277444;22;20057;-88
2022/09/25 10:00:00;;;;;;;8.20;7.10;;;13.90;31.60;;;;;;6258753;22;20103;-87
2022/09/25 10:03:06;;;;;;;10.20;7.38;;;14.10;87.40;;;;;;6278876;22;20030;-88
2022/09/25 10:06:01;;;;;;;13.30;9.23;;;14.10;36.20;;;;;;6279140;22;20035;-88
2022/09/25 10:08:48;;;;;;;13.85;8.70;;;14.20;1.00;;;;;;6261224;22;20238;-89
2022/09/25 10:11:36;;;;;;;11.38;8.15;;;14.20;1.00;;;;;;6258671;22;20346;-89
2022/09/25 10:14:28;;;;;;;11.15;9.10;;;14.10;1.00;;;;;;6258754;22;20031;-88
2022/09/25 10:17:18;;;;;;;8.38;7.25;;;14.30;1.00;;;;;;6261632;22;20077;-89
2022/09/25 10:20:20;;;;;;;9.35;7.65;;;14.50;1.00;;;;;;6260772;22;20079;-89
2022/09/25 10:23:38;;;;;;;7.90;7.10;;;14.60;1.00;;;;;;6263141;22;20031;-88
2022/09/25 10:26:34;;;;;;;12.02;8.02;;;14.90;1.00;;;;;;6265957;22;20033;-89
2022/09/25 10:29:22;;;;;;;13.27;8.57;;;14.80;99.90;;;;;;6270834;22;20083;-88
2022/09/25 10:32:11;;;;;;;9.27;7.60;;;14.70;99.90;;;;;;6268641;22;20083;-91
2022/09/25 10:35:03;;;;;;;11.80;7.50;;;14.80;99.90;;;;;;6293597;22;20079;-87
2022/09/25 10:37:57;;;;;;;10.52;7.20;;;14.90;99.90;;;;;;6299623;22;20087;-84
2022/09/25 10:40:55;;;;;;;10.98;7.43;;;15.00;99.90;;;;;;6278613;22;20031;-87
2022/09/25 10:43:50;;;;;;;10.82;7.07;;;15.30;99.90;;;;;;6296521;22;20449;-90
2022/09/25 10:52:57;;;;;;;12.52;7.72;;;14.80;99.90;;;;;;6286702;22;20105;-91
2022/09/25 10:55:50;;;;;;;10.73;8.35;;;14.60;99.90;;;;;;6260804;22;20028;-88
2022/09/25 10:58:46;;;;;;;13.60;8.68;;;14.40;99.90;;;;;;6282189;22;20024;-92
2022/09/25 11:01:40;;;;;;;10.30;8.57;;;14.30;99.90;;;;;;6281438;22;20019;-90
2022/09/25 11:04:30;;;;;;;10.35;8.32;;;14.30;99.90;;;;;;6282837;22;20034;-91
2022/09/25 11:07:26;;;;;;;17.95;8.48;;;14.20;99.90;;;;;;6283031;22;20411;-88
2022/09/25 11:10:32;;;;;;;12.80;8.55;;;14.20;99.90;;;;;;6259905;22;20020;-90
2022/09/25 11:13:27;;;;;;;12.35;8.90;;;14.30;99.90;;;;;;6283512;22;20031;-91
2022/09/25 11:16:15;;;;;;;12.40;9.15;;;14.40;99.90;;;;;;6263612;22;20334;-92
2022/09/25 11:19:28;;;;;;;13.38;9.90;;;14.40;99.90;;;;;;6261257;22;20023;-90
2022/09/25 11:22:15;;;;;;;;;;;14.50;99.90;;;;;;6265848;22;20024;-89
2022/09/25 11:25:24;;;;;;;9.45;7.40;;;14.80;99.90;;;;;;6265268;22;20329;-90
2022/09/25 11:28:34;;;;;;;13.20;8.10;;;15.10;99.90;;;;;;6283424;22;20027;-90
2022/09/25 11:31:33;;;;;;;11.45;8.27;;;15.30;99.90;;;;;;6281033;22;20034;-92
2022/09/25 11:35:02;;;;;;;13.55;8.07;;;15.30;99.90;;;;;;6280186;22;20411;-89
2022/09/25 11:38:05;;;;;;;10.88;8.85;;;15.40;99.90;;;;;;6258865;22;20055;-90
2022/09/25 11:41:17;;;;;;;11.13;9.07;;;15.60;99.90;;;;;;6280978;22;20101;-91
2022/09/25 11:44:22;;;;;;;13.55;8.70;;;15.50;99.90;;;;;;6260145;22;20348;-89
2022/09/25 11:47:28;;;;;;;15.70;10.30;;;15.60;99.90;;;;;;6260291;22;20051;-88
2022/09/25 11:50:19;;;;;;;13.68;8.38;;;15.60;99.90;;;;;;6280130;22;20027;-89
2022/09/25 11:53:37;;;;;;;11.25;8.27;;;15.60;99.90;;;;;;6281138;22;20330;-90
2022/09/25 11:56:48;;;;;;;16.80;8.80;;;15.20;99.90;;;;;;6259357;22;20379;-89
2022/09/25 11:59:47;;;;;;;15.07;9.20;;;14.90;99.90;;;;;;6257916;22;20432;-88
2022/09/25 12:03:06;;;;;;;10.95;9.23;;;14.70;99.90;;;;;;6256149;22;20023;-90
2022/09/25 12:06:27;;;;;;;18.65;12.57;;;14.60;99.90;;;;;;6258998;22;20024;-88
2022/09/25 12:09:53;;;;;;;17.60;14.45;;;14.50;99.90;;;;;;6259728;22;20027;-87
2022/09/25 12:12:58;;;;;;;18.92;15.05;;;14.20;99.90;;;;;;6255100;22;20024;-89
2022/09/25 12:16:08;;;;;;;24.60;15.27;;;14.00;1.00;;;;;;6258055;22;20046;-88
2022/09/25 12:19:23;;;;;;;23.25;16.15;;;13.70;1.00;;;;;;6257159;22;20063;-87
2022/09/25 12:22:19;;;;;;;20.52;15.82;;;13.60;1.00;;;;;;6256353;22;20031;-87
2022/09/25 12:25:28;;;;;;;18.88;15.63;;;13.40;1.00;;;;;;6256212;22;20392;-87
2022/09/25 12:28:30;;;;;;;21.92;17.20;;;13.30;31.50;;;;;;6278462;22;20030;-90
2022/09/25 12:31:52;;;;;;;22.55;17.90;;;13.20;99.90;;;;;;6256585;22;20390;-87
2022/09/25 12:34:55;;;;;;;23.77;18.58;;;13.00;99.90;;;;;;6257222;22;20063;-86
2022/09/25 12:37:56;;;;;;;27.63;20.55;;;12.70;99.90;;;;;;6251369;22;20031;-85
2022/09/25 12:40:54;;;;;;;31.98;22.75;;;12.50;99.90;;;;;;6277725;22;20019;-86
2022/09/25 12:43:54;;;;;;;29.65;23.02;;;12.50;1.00;;;;;;6256550;22;20295;-84
2022/09/25 12:46:48;;;;;;;27.98;22.17;;;12.60;1.00;;;;;;6256717;22;20442;-86
2022/09/25 12:49:49;;;;;;;27.13;20.05;;;12.60;5.50;;;;;;6254241;22;20065;-87
2022/09/25 12:52:45;;;;;;;26.60;19.50;;;12.70;1.00;;;;;;6277946;22;20024;-83
2022/09/25 12:55:46;;;;;;;26.33;18.80;;;13.10;1.00;;;;;;6255342;22;20026;-86
2022/09/25 12:58:56;;;;;;;24.83;17.88;;;13.80;1.00;;;;;;6256281;22;20034;-88
2022/09/25 13:01:52;;;;;;;21.40;17.58;;;13.90;99.90;;;;;;6258174;22;20024;-88
2022/09/25 13:05:19;;;;;;;20.17;16.33;;;14.30;99.90;;;;;;6257252;22;20020;-87
2022/09/25 13:08:20;;;;;;;20.13;17.63;;;14.80;99.90;;;;;;6259778;22;20019;-88
2022/09/25 13:11:17;;;;;;;21.25;15.43;;;14.90;36.00;;;;;;6283909;22;20087;-86
2022/09/25 13:14:13;;;;;;;19.70;16.23;;;15.10;1.00;;;;;;6280985;22;20051;-86
2022/09/25 13:17:02;;;;;;;18.38;14.45;;;15.60;1.00;;;;;;6257445;22;20091;-88
2022/09/25 13:19:50;;;;;;;15.50;13.13;;;16.30;1.00;;;;;;6278252;22;20098;-89
2022/09/25 13:22:40;;;;;;;20.55;14.57;;;16.50;99.90;;;;;;6278084;22;20030;-88
2022/09/25 13:25:29;;;;;;;17.77;14.05;;;15.90;99.90;;;;;;6276175;22;20094;-87
2022/09/25 13:28:25;;;;;;;23.67;16.30;;;15.20;99.90;;;;;;6255510;22;20095;-87
2022/09/25 13:31:21;;;;;;;21.77;16.20;;;15.00;1.00;;;;;;6255854;22;20472;-89
2022/09/25 13:34:15;;;;;;;19.90;15.60;;;14.80;1.00;;;;;;6276464;22;20345;-89
2022/09/25 13:37:08;;;;;;;18.25;13.95;;;14.80;1.00;;;;;;6277588;22;20023;-88
2022/09/25 13:43:23;;;;;;;16.45;13.88;;;17.50;99.90;;;;;;6279606;22;20027;-88
2022/09/25 13:46:13;;;;;;;16.38;13.15;;;17.20;99.90;;;;;;6277263;22;20030;-89
2022/09/25 13:49:33;;;;;;;16.02;13.00;;;17.10;99.90;;;;;;6277192;22;20034;-88
2022/09/25 13:52:39;;;;;;;13.95;11.85;;;16.40;99.90;;;;;;6253777;22;20023;-88
2022/09/25 13:55:30;;;;;;;16.52;13.85;;;16.30;99.90;;;;;;6256099;22;20488;-87
2022/09/25 13:58:22;;;;;;;16.05;13.38;;;16.40;99.90;;;;;;6278197;22;20098;-90
2022/09/25 14:01:32;;;;;;;15.77;13.20;;;16.90;99.90;;;;;;6258889;22;20027;-89
2022/09/25 14:04:23;;;;;;;20.83;15.13;;;16.90;99.90;;;;;;6254658;22;20491;-86
2022/09/25 14:07:22;;;;;;;21.47;15.70;;;16.80;99.90;;;;;;6258148;22;20133;-87
2022/09/25 14:10:11;;;;;;;17.83;14.25;;;16.70;99.90;;;;;;6279755;22;20696;-87
2022/09/25 14:13:04;;;;;;;17.83;14.68;;;16.70;99.90;;;;;;6277241;22;20035;-86
2022/09/25 14:16:00;;;;;;;19.35;15.48;;;16.80;99.90;;;;;;6277380;22;20115;-87
2022/09/25 14:18:49;;;;;;;20.40;13.85;;;16.60;99.90;;;;;;6280878;22;20057;-86
2022/09/25 14:21:46;;;;;;;17.17;14.02;;;16.70;99.90;;;;;;6279698;22;20030;-88
2022/09/25 14:24:44;;;;;;;15.80;12.95;;;16.90;99.90;;;;;;6256421;22;20169;-88
2022/09/25 14:27:31;;;;;;;17.90;13.55;;;17.00;99.90;;;;;;6259039;22;20166;-88
2022/09/25 14:30:27;;;;;;;18.17;13.68;;;17.30;99.90;;;;;;6278192;22;20034;-88
2022/09/25 14:33:18;;;;;;;17.33;12.13;;;17.50;99.90;;;;;;6256941;22;20035;-90
2022/09/25 14:36:21;;;;;;;16.02;12.93;;;17.70;99.90;;;;;;6278502;22;20287;-90
2022/09/25 14:39:53;;;;;;;14.57;11.77;;;18.10;99.90;;;;;;6278134;22;20292;-87
2022/09/25 14:42:55;;;;;;;15.02;12.20;;;19.00;99.90;;;;;;6278554;22;20035;-89
2022/09/25 14:45:48;;;;;;;14.68;11.32;;;19.50;99.90;;;;;;6257949;22;20446;-88
2022/09/25 14:49:04;;;;;;;14.23;11.45;;;19.10;99.90;;;;;;6287810;22;20027;-90
2022/09/25 14:52:02;;;;;;;18.10;11.85;;;18.80;99.90;;;;;;6257478;22;20031;-89
2022/09/25 14:54:55;;;;;;;17.02;13.18;;;17.80;99.90;;;;;;6279782;22;20457;-89
2022/09/25 14:57:42;;;;;;;18.88;14.02;;;17.10;99.90;;;;;;6256333;22;20060;-89
2022/09/25 15:00:30;;;;;;;18.85;13.30;;;16.40;99.90;;;;;;6280118;22;20034;-89
2022/09/25 15:03:21;;;;;;;21.35;14.73;;;16.10;99.90;;;;;;6276442;22;20024;-88
2022/09/25 15:06:13;;;;;;;19.75;15.25;;;15.60;99.90;;;;;;6287403;22;20089;-88
2022/09/25 15:09:27;;;;;;;26.63;15.15;;;15.30;99.90;;;;;;6281935;22;20020;-90